Time;durP1;ratioP1;P1;durP2;ratioP2;P2;SDS_P1;SDS_P2;PMS_P1;PMS_P2;Temp;Humidity;BMP_temperature;BMP_pressure;BME280_temperature;BME280_humidity;BME280_pressure;Samples;Min_cycle;Max_cycle;Signal;HPM_P1;HPM_P2
2021/12/19 00:00:07;;;;;;;;;;;;;;;5.84;59.51;100546.94;4426207;32;20031;-86
2021/12/19 00:10:23;;;;;;;;;;;;;;;5.69;59.50;100531.47;4438977;32;20059;-84
2021/12/19 00:12:48;;;;;;;;;;;;;;;5.73;59.49;100530.59;4426213;32;20327;-88
2021/12/19 00:15:13;;;;;;;;;;;;;;;5.72;59.50;100512.53;4426694;32;20032;-89
2021/12/19 00:17:38;;;;;;;;;;;;;;;5.72;59.49;100521.13;4426385;32;19997;-87
2021/12/19 00:20:04;;;;;;;;;;;;;;;5.81;59.50;100521.13;4426782;32;20021;-87
2021/12/19 00:22:29;;;;;;;;;;;;;;;5.79;59.50;100504.75;4425375;32;20591;-86
2021/12/19 00:24:54;;;;;;;;;;;;;;;5.87;59.50;100499.59;4425175;32;20012;-86
2021/12/19 00:27:20;;;;;;;;;;;;;;;5.94;59.51;100496.19;4425429;32;20307;-86
2021/12/19 00:29:45;;;;;;;;;;;;;;;5.74;59.49;100493.59;4424977;32;19990;-86
2021/12/19 00:32:10;;;;;;;;;;;;;;;5.85;59.50;100497.00;4424641;32;19995;-86
2021/12/19 00:34:35;;;;;;;;;;;;;;;5.93;59.51;100493.59;4437962;32;20007;-86
2021/12/19 00:37:01;;;;;;;;;;;;;;;5.82;59.50;100488.41;4426464;32;20013;-83
2021/12/19 00:39:26;;;;;;;;;;;;;;;5.72;59.50;100489.28;4426808;32;20299;-86
2021/12/19 00:41:53;;;;;;;;;;;;;;;5.79;59.50;100478.06;4427428;32;20263;-86
2021/12/19 00:44:25;;;;;;;;;;;;;;;5.75;59.49;100489.28;4427152;32;19977;-86
2021/12/19 00:46:53;;;;;;;;;;;;;;;5.64;59.49;100485.81;4427585;32;20682;-87
2021/12/19 00:49:22;;;;;;;;;;;;;;;5.69;59.50;100494.44;4427109;32;20099;-85
2021/12/19 00:51:48;;;;;;;;;;;;;;;5.77;59.50;100487.53;4427738;32;20005;-86
2021/12/19 00:54:13;;;;;;;;;;;;;;;5.91;59.52;100485.81;4428885;32;19977;-85
2021/12/19 00:56:39;;;;;;;;;;;;;;;5.95;59.50;100484.13;4429080;32;19988;-86
2021/12/19 00:59:04;;;;;;;;;;;;;;;6.00;59.51;100475.50;4429067;32;20077;-85
2021/12/19 01:01:29;;;;;;;;;;;;;;;5.77;59.50;100472.91;4429114;32;20270;-85
2021/12/19 01:03:54;;;;;;;;;;;;;;;5.81;59.50;100468.59;4441965;32;20029;-85
2021/12/19 01:06:20;;;;;;;;;;;;;;;5.85;59.51;100470.31;4428782;32;20489;-86
2021/12/19 01:08:46;;;;;;;;;;;;;;;6.02;59.51;100476.34;4428842;32;19997;-86
2021/12/19 01:11:11;;;;;;;;;;;;;;;6.12;59.51;100479.75;4429126;32;20023;-86
2021/12/19 01:13:36;;;;;;;;;;;;;;;6.15;59.52;100475.47;4429566;32;20434;-85
2021/12/19 01:16:02;;;;;;;;;;;;;;;6.19;59.52;100465.97;4429259;32;22203;-86
2021/12/19 01:18:27;;;;;;;;;;;;;;;6.28;59.52;100454.75;4442448;32;19989;-86
2021/12/19 01:20:52;;;;;;;;;;;;;;;6.37;59.53;100452.09;4429653;32;20318;-86
2021/12/19 01:23:18;;;;;;;;;;;;;;;6.29;59.53;100440.94;4428738;32;20344;-86
2021/12/19 01:25:43;;;;;;;;;;;;;;;6.12;59.51;100443.56;4429237;32;20540;-85
2021/12/19 01:28:08;;;;;;;;;;;;;;;5.87;59.50;100432.41;4429189;32;19989;-86
2021/12/19 01:30:33;;;;;;;;;;;;;;;6.07;59.52;100411.72;4429414;32;20031;-86
2021/12/19 01:32:59;;;;;;;;;;;;;;;6.15;59.52;100413.44;4429455;32;20004;-87
2021/12/19 01:35:24;;;;;;;;;;;;;;;5.99;59.51;100410.91;4442745;32;20066;-85
2021/12/19 01:37:49;;;;;;;;;;;;;;;6.03;59.51;100399.69;4442806;32;20530;-86
2021/12/19 01:40:15;;;;;;;;;;;;;;;6.09;59.52;100397.06;4442471;32;19999;-86
2021/12/19 01:42:41;;;;;;;;;;;;;;;6.17;59.52;100405.69;4442554;32;19961;-85
2021/12/19 01:45:07;;;;;;;;;;;;;;;6.24;59.52;100407.34;4429665;32;19997;-87
2021/12/19 01:47:33;;;;;;;;;;;;;;;6.05;59.51;100405.69;4442247;32;19993;-86
2021/12/19 01:49:58;;;;;;;;;;;;;;;6.04;59.51;100414.31;4429735;32;20004;-87
2021/12/19 01:52:24;;;;;;;;;;;;;;;6.24;59.52;100391.84;4429056;32;20336;-86
2021/12/19 01:54:49;;;;;;;;;;;;;;;6.25;59.52;100388.41;4442713;32;20086;-86
2021/12/19 01:57:14;;;;;;;;;;;;;;;6.09;59.52;100397.06;4429512;32;20284;-86
2021/12/19 01:59:40;;;;;;;;;;;;;;;6.35;59.54;100387.47;4442295;32;20025;-86
2021/12/19 02:02:05;;;;;;;;;;;;;;;6.54;59.55;100385.66;4428882;32;26543;-85
2021/12/19 02:04:32;;;;;;;;;;;;;;;6.58;59.55;100368.41;4429487;32;19993;-86
2021/12/19 02:06:58;;;;;;;;;;;;;;;6.40;59.53;100362.47;4429386;32;20664;-85
2021/12/19 02:09:24;;;;;;;;;;;;;;;6.39;59.53;100344.38;4428950;32;20012;-86
2021/12/19 02:11:49;;;;;;;;;;;;;;;6.37;59.53;100354.72;4429519;32;20011;-85
2021/12/19 02:14:14;;;;;;;;;;;;;;;6.47;59.54;100340.03;4442123;32;20330;-84
2021/12/19 02:16:40;;;;;;;;;;;;;;;6.60;59.55;100348.53;4428846;32;20058;-86
2021/12/19 02:19:05;;;;;;;;;;;;;;;6.55;59.54;100346.00;4429635;32;19981;-86
2021/12/19 02:21:30;;;;;;;;;;;;;;;6.47;59.54;100333.13;4429456;32;20020;-86
2021/12/19 02:23:56;;;;;;;;;;;;;;;6.75;59.56;100338.97;4442287;32;20310;-84
2021/12/19 02:26:21;;;;;;;;;;;;;;;6.75;59.55;100333.78;4429395;32;20004;-86
2021/12/19 02:28:46;;;;;;;;;;;;;;;6.63;59.54;100323.53;4441607;32;21820;-85
2021/12/19 02:31:12;;;;;;;;;;;;;;;6.92;59.56;100306.94;4442300;32;19977;-88
2021/12/19 02:33:41;;;;;;;;;;;;;;;7.03;59.58;100307.69;4442588;32;19988;-86
2021/12/19 02:49:35;;;;;;;;;;;;;;;7.14;59.57;100297.25;4444933;32;20000;-87
2021/12/19 02:52:03;;;;;;;;;;;;;;;7.09;59.57;100305.03;4429681;32;19989;-86
2021/12/19 02:54:29;;;;;;;;;;;;;;;6.94;59.56;100284.50;4430160;32;19981;-85
2021/12/19 02:56:54;;;;;;;;;;;;;;;6.81;59.56;100281.13;4429590;32;20059;-85
2021/12/19 02:59:19;;;;;;;;;;;;;;;6.64;59.54;100280.44;4428806;32;19976;-87
2021/12/19 03:01:45;;;;;;;;;;;;;;;6.90;59.56;100272.47;4456303;32;20063;-84
2021/12/19 03:04:11;;;;;;;;;;;;;;;6.89;59.56;100265.56;4429410;32;19993;-87
2021/12/19 03:06:41;;;;;;;;;;;;;;;6.74;59.56;100261.37;4442340;32;20043;-86
2021/12/19 03:09:09;;;;;;;;;;;;;;;6.91;59.56;100256.06;4429303;32;20345;-86
2021/12/19 03:19:33;;;;;;;;;;;;;;;6.63;59.54;100250.25;4443905;32;19988;-86
2021/12/19 03:21:58;;;;;;;;;;;;;;;6.72;59.55;100237.25;4442038;32;19989;-86
2021/12/19 03:24:24;;;;;;;;;;;;;;;6.84;59.56;100229.34;4441544;32;20013;-85
2021/12/19 03:26:49;;;;;;;;;;;;;;;7.06;59.57;100230.87;4441672;32;20315;-86
2021/12/19 03:29:14;;;;;;;;;;;;;;;6.94;59.56;100235.31;4428469;32;20035;-86
2021/12/19 03:31:39;;;;;;;;;;;;;;;6.63;59.55;100224.41;4428686;32;20588;-86
2021/12/19 03:34:05;;;;;;;;;;;;;;;6.72;59.55;100226.87;4442326;32;19982;-86
2021/12/19 03:36:31;;;;;;;;;;;;;;;6.70;59.55;100213.13;4429067;32;19993;-87
2021/12/19 03:39:03;;;;;;;;;;;;;;;6.65;59.54;100204.53;4428632;32;19985;-85
2021/12/19 03:41:34;;;;;;;;;;;;;;;6.74;59.55;100202.72;4428618;32;20314;-86
2021/12/19 03:44:01;;;;;;;;;;;;;;;6.80;59.55;100185.41;4428459;32;20002;-87
2021/12/19 03:46:26;;;;;;;;;;;;;;;6.72;59.55;100182.91;4428275;32;19992;-84
2021/12/19 03:48:51;;;;;;;;;;;;;;;6.63;59.54;100183.88;4440597;32;20263;-86
2021/12/19 03:51:17;;;;;;;;;;;;;;;6.72;59.56;100176.00;4440497;32;20336;-86
2021/12/19 03:53:42;;;;;;;;;;;;;;;6.81;59.56;100171.59;4427168;32;20024;-85
2021/12/19 03:56:07;;;;;;;;;;;;;;;6.74;59.56;100173.41;4454891;32;20029;-87
2021/12/19 03:58:32;;;;;;;;;;;;;;;6.60;59.55;100196.81;4440923;32;21523;-88
2021/12/19 04:01:00;;;;;;;;;;;;;;;6.62;59.54;100179.53;4428594;32;20000;-86
2021/12/19 04:03:25;;;;;;;;;;;;;;;6.68;59.54;100184.69;4429172;32;20045;-87
2021/12/19 04:05:51;;;;;;;;;;;;;;;6.65;59.54;100183.84;4428392;32;20012;-86
2021/12/19 04:08:16;;;;;;;;;;;;;;;6.72;59.55;100208.78;4428207;32;19977;-85
2021/12/19 04:10:41;;;;;;;;;;;;;;;6.76;59.55;100185.44;4429519;32;20265;-87
2021/12/19 04:13:07;;;;;;;;;;;;;;;6.67;59.55;100195.03;4430965;32;19989;-86
2021/12/19 04:15:32;;;;;;;;;;;;;;;6.69;59.55;100191.56;4443549;32;19977;-86
2021/12/19 04:17:57;;;;;;;;;;;;;;;6.74;59.55;100176.84;4430902;32;19976;-87
2021/12/19 04:20:23;;;;;;;;;;;;;;;6.71;59.55;100191.53;4430506;32;20333;-87
2021/12/19 04:22:49;;;;;;;;;;;;;;;6.52;59.54;100193.44;4429788;32;20048;-85
2021/12/19 04:25:14;;;;;;;;;;;;;;;6.55;59.55;100183.06;4442927;32;20013;-86
2021/12/19 04:27:40;;;;;;;;;;;;;;;6.48;59.53;100186.56;4442295;32;19992;-85
2021/12/19 04:30:05;;;;;;;;;;;;;;;6.64;59.54;100183.00;4429823;32;19969;-85
2021/12/19 04:32:35;;;;;;;;;;;;;;;6.58;59.55;100187.34;4443489;32;19988;-86
2021/12/19 04:35:01;;;;;;;;;;;;;;;6.69;59.55;100185.53;4431210;32;20049;-87
2021/12/19 04:53:57;;;;;;;;;;;;;;;6.54;59.54;100158.06;4445783;32;20025;-87
2021/12/19 04:56:37;;;;;;;;;;;;;;;6.47;59.54;100162.44;4433335;32;19998;-87
2021/12/19 05:02:11;;;;;;;;;;;;;;;6.62;59.54;100157.97;4444064;32;19996;-83
2021/12/19 05:05:23;;;;;;;;;;;;;;;6.57;59.54;100158.03;4431763;32;20011;-83
2021/12/19 05:15:44;;;;;;;;;;;;;;;6.67;59.55;100122.59;4445114;32;20003;-85
2021/12/19 05:18:09;;;;;;;;;;;;;;;6.59;59.55;100138.19;4430513;32;20005;-85
2021/12/19 05:20:36;;;;;;;;;;;;;;;6.53;59.54;100114.97;4429756;32;20007;-87
2021/12/19 05:23:51;;;;;;;;;;;;;;;6.53;59.54;100127.03;4428824;32;19995;-85
2021/12/19 05:25:53;;;;;;;;;;;;;;;6.57;59.54;100132.16;4442712;32;20087;-83
2021/12/19 05:28:18;;;;;;;;;;;;;;;6.57;59.54;100134.75;4455040;32;20838;-84
2021/12/19 05:30:44;;;;;;;;;;;;;;;6.43;59.54;100121.97;4440870;32;20040;-83
2021/12/19 05:33:09;;;;;;;;;;;;;;;6.82;59.56;100116.41;4428843;32;20021;-85
2021/12/19 05:46:27;;;;;;;;;;;;;;;6.51;59.54;100088.28;4443957;32;20019;-83
2021/12/19 05:48:53;;;;;;;;;;;;;;;6.44;59.54;100100.41;4442276;32;19993;-83
2021/12/19 05:51:18;;;;;;;;;;;;;;;6.49;59.54;100086.56;4429175;32;20016;-82
2021/12/19 05:53:43;;;;;;;;;;;;;;;6.64;59.54;100091.59;4428909;32;19981;-84
2021/12/19 05:56:09;;;;;;;;;;;;;;;6.57;59.54;100092.53;4428756;32;19981;-85
2021/12/19 05:58:34;;;;;;;;;;;;;;;6.59;59.55;100089.03;4428995;32;20017;-84
2021/12/19 06:00:59;;;;;;;;;;;;;;;6.56;59.54;100080.47;4427939;32;25112;-85
2021/12/19 06:03:25;;;;;;;;;;;;;;;6.54;59.54;100095.13;4455902;32;20020;-86
2021/12/19 06:05:51;;;;;;;;;;;;;;;6.61;59.55;100091.59;4429576;32;19992;-85
2021/12/19 06:08:16;;;;;;;;;;;;;;;6.71;59.54;100077.72;4429202;32;20024;-83
2021/12/19 06:10:41;;;;;;;;;;;;;;;6.77;59.55;100082.81;4441475;32;19993;-85
2021/12/19 06:13:06;;;;;;;;;;;;;;;6.64;59.54;100089.88;4428833;32;20291;-86
2021/12/19 06:15:32;;;;;;;;;;;;;;;6.75;59.55;100079.41;4441323;32;20005;-85
2021/12/19 06:17:57;;;;;;;;;;;;;;;6.68;59.55;100075.16;4429020;32;19993;-86
2021/12/19 06:20:25;;;;;;;;;;;;;;;6.58;59.55;100083.88;4429397;32;19996;-86
2021/12/19 06:22:50;;;;;;;;;;;;;;;6.63;59.54;100071.78;4429459;32;19982;-86
2021/12/19 06:25:15;;;;;;;;;;;;;;;6.92;59.56;100074.87;4428931;32;19997;-82
2021/12/19 06:27:40;;;;;;;;;;;;;;;6.73;59.56;100060.44;4454973;32;19992;-83
2021/12/19 06:30:06;;;;;;;;;;;;;;;6.88;59.56;100069.78;4440796;32;20005;-83
2021/12/19 06:32:31;;;;;;;;;;;;;;;6.87;59.56;100065.47;4427539;32;19988;-84
2021/12/19 06:34:59;;;;;;;;;;;;;;;6.72;59.55;100079.44;4426432;32;20008;-84
2021/12/19 06:37:24;;;;;;;;;;;;;;;6.90;59.56;100078.38;4455244;32;20036;-86
2021/12/19 06:39:49;;;;;;;;;;;;;;;6.90;59.56;100063.72;4440696;32;19977;-84
2021/12/19 06:42:15;;;;;;;;;;;;;;;6.77;59.55;100059.53;4427570;32;20008;-83
2021/12/19 06:44:41;;;;;;;;;;;;;;;6.93;59.56;100048.13;4427943;32;20343;-83
2021/12/19 06:47:06;;;;;;;;;;;;;;;7.05;59.57;100039.34;4440623;32;19981;-82
2021/12/19 06:49:31;;;;;;;;;;;;;;;6.96;59.57;100040.34;4427698;32;19978;-83
2021/12/19 06:51:56;;;;;;;;;;;;;;;6.72;59.54;100038.03;4440405;32;19980;-84
2021/12/19 06:54:22;;;;;;;;;;;;;;;6.86;59.56;100045.62;4454330;32;19997;-83
2021/12/19 06:56:47;;;;;;;;;;;;;;;6.95;59.57;100030.84;4427781;32;19985;-85
2021/12/19 06:59:12;;;;;;;;;;;;;;;7.10;59.58;100032.41;4427187;32;20444;-85
2021/12/19 07:01:37;;;;;;;;;;;;;;;7.29;59.58;100027.78;4440392;32;19981;-84
2021/12/19 07:04:03;;;;;;;;;;;;;;;7.60;59.60;100028.22;4454119;32;19996;-83
2021/12/19 07:06:28;;;;;;;;;;;;;;;7.62;59.61;100021.28;4440136;32;20042;-85
2021/12/19 07:08:53;;;;;;;;;;;;;;;7.70;59.60;100012.50;4440265;32;19985;-84
2021/12/19 07:11:18;;;;;;;;;;;;;;;7.70;59.61;100011.62;4440374;32;20286;-84
2021/12/19 07:13:44;;;;;;;;;;;;;;;7.38;59.58;100023.37;4427158;32;20034;-82
2021/12/19 07:16:09;;;;;;;;;;;;;;;7.38;59.58;100000.06;4454107;32;20050;-83
2021/12/19 07:18:36;;;;;;;;;;;;;;;7.27;59.58;100004.53;4454321;32;20027;-83
2021/12/19 07:21:01;;;;;;;;;;;;;;;7.17;59.57;100002.94;4439883;32;19985;-83
2021/12/19 07:23:27;;;;;;;;;;;;;;;7.21;59.58;99996.00;4440035;32;19985;-82
2021/12/19 07:25:52;;;;;;;;;;;;;;;7.29;59.58;99995.00;4427133;32;19985;-85
2021/12/19 07:28:18;;;;;;;;;;;;;;;7.34;59.59;99989.78;4454493;32;20026;-84
2021/12/19 07:30:43;;;;;;;;;;;;;;;7.42;59.59;100003.44;4440625;32;20268;-85
2021/12/19 07:33:09;;;;;;;;;;;;;;;7.27;59.58;100001.94;4440440;32;20038;-85
2021/12/19 07:35:37;;;;;;;;;;;;;;;7.43;59.59;100001.72;4440536;32;20000;-85
2021/12/19 07:38:03;;;;;;;;;;;;;;;7.51;59.59;100003.28;4428019;32;20345;-86
2021/12/19 07:40:35;;;;;;;;;;;;;;;7.44;59.59;100006.87;4427747;32;20002;-86
2021/12/19 07:43:02;;;;;;;;;;;;;;;7.47;59.60;100012.00;4427764;32;19997;-86
2021/12/19 07:45:27;;;;;;;;;;;;;;;7.60;59.59;100010.94;4429426;32;20352;-84
2021/12/19 07:47:53;;;;;;;;;;;;;;;7.16;59.57;100003.84;4444783;32;20001;-84
2021/12/19 07:50:18;;;;;;;;;;;;;;;7.31;59.58;99997.56;4432285;32;20311;-85
2021/12/19 07:52:43;;;;;;;;;;;;;;;7.36;59.59;100001.81;4444917;32;20024;-85
2021/12/19 07:55:08;;;;;;;;;;;;;;;7.13;59.58;99990.09;4458911;32;19977;-84
2021/12/19 07:57:34;;;;;;;;;;;;;;;7.05;59.57;99995.34;4444785;32;20007;-84
2021/12/19 07:59:59;;;;;;;;;;;;;;;7.15;59.57;99993.50;4458698;32;19984;-83
2021/12/19 08:02:24;;;;;;;;;;;;;;;7.22;59.58;99987.34;4432041;32;20039;-83
2021/12/19 08:04:49;;;;;;;;;;;;;;;7.05;59.57;99988.44;4432020;32;20376;-83
2021/12/19 08:07:17;;;;;;;;;;;;;;;7.12;59.58;99978.00;4444422;32;20046;-84
2021/12/19 08:09:59;;;;;;;;;;;;;;;7.07;59.57;99984.09;4458959;32;20053;-85
2021/12/19 08:12:24;;;;;;;;;;;;;;;7.01;59.56;99978.16;4434411;32;20008;-84
2021/12/19 08:14:50;;;;;;;;;;;;;;;7.27;59.58;99968.28;4444860;32;19993;-84
2021/12/19 08:17:17;;;;;;;;;;;;;;;7.58;59.59;99970.41;4458614;32;20804;-83
2021/12/19 08:19:42;;;;;;;;;;;;;;;7.69;59.61;99953.78;4444781;32;19969;-84
2021/12/19 08:22:07;;;;;;;;;;;;;;;7.44;59.60;99955.06;4431408;32;20038;-83
2021/12/19 08:24:33;;;;;;;;;;;;;;;7.42;59.59;99943.03;4430848;32;20094;-82
2021/12/19 08:26:58;;;;;;;;;;;;;;;7.49;59.60;99934.28;4430022;32;19980;-83
2021/12/19 08:29:23;;;;;;;;;;;;;;;7.66;59.60;99948.66;4430882;32;20037;-83
2021/12/19 08:31:48;;;;;;;;;;;;;;;7.69;59.61;99935.66;4443820;32;20041;-83
2021/12/19 08:34:14;;;;;;;;;;;;;;;7.19;59.58;99935.62;4443764;32;20005;-83
2021/12/19 08:36:39;;;;;;;;;;;;;;;7.29;59.58;99935.44;4458055;32;20018;-84
2021/12/19 08:39:04;;;;;;;;;;;;;;;7.15;59.57;99931.38;4458464;32;20382;-84
2021/12/19 08:41:29;;;;;;;;;;;;;;;7.33;59.59;99926.78;4443875;32;20008;-83
2021/12/19 08:43:55;;;;;;;;;;;;;;;7.47;59.60;99931.72;4443721;32;20031;-84
2021/12/19 08:46:20;;;;;;;;;;;;;;;7.62;59.61;99928.88;4443712;32;20011;-84
2021/12/19 08:48:45;;;;;;;;;;;;;;;7.58;59.60;99922.03;4444070;32;20008;-84
2021/12/19 08:51:10;;;;;;;;;;;;;;;7.48;59.59;99917.87;4430433;32;20045;-82
2021/12/19 08:53:36;;;;;;;;;;;;;;;7.33;59.59;99912.94;4444176;32;20007;-83
2021/12/19 08:56:01;;;;;;;;;;;;;;;7.29;59.58;99913.88;4430197;32;19995;-85
2021/12/19 08:58:28;;;;;;;;;;;;;;;7.26;59.58;99900.97;4440481;32;20008;-82
2021/12/19 09:00:57;;;;;;;;;;;;;;;7.45;59.59;99906.72;4441408;32;20025;-82
2021/12/19 09:03:23;;;;;;;;;;;;;;;7.49;59.60;99895.41;4428628;32;20046;-82
2021/12/19 09:05:48;;;;;;;;;;;;;;;7.38;59.58;99891.28;4440654;32;20031;-85
2021/12/19 09:08:13;;;;;;;;;;;;;;;7.53;59.59;99887.56;4454205;32;19977;-83
2021/12/19 09:10:38;;;;;;;;;;;;;;;7.66;59.60;99890.81;4440573;32;20023;-85
2021/12/19 09:13:04;;;;;;;;;;;;;;;7.57;59.60;99888.34;4428174;32;20014;-83
2021/12/19 09:15:29;;;;;;;;;;;;;;;7.60;59.60;99888.34;4427959;32;19985;-83
2021/12/19 09:17:54;;;;;;;;;;;;;;;7.51;59.60;99881.56;4440828;32;20374;-84
2021/12/19 09:20:20;;;;;;;;;;;;;;;7.63;59.61;99894.31;4427973;32;19992;-85
2021/12/19 09:22:46;;;;;;;;;;;;;;;7.69;59.61;99886.41;4454264;32;19999;-83
2021/12/19 09:25:11;;;;;;;;;;;;;;;7.80;59.61;99875.84;4440105;32;19985;-82
2021/12/19 09:27:36;;;;;;;;;;;;;;;7.67;59.60;99867.47;4440320;32;19983;-82
2021/12/19 09:30:02;;;;;;;;;;;;;;;7.77;59.61;99868.12;4439948;32;20326;-83
2021/12/19 09:32:28;;;;;;;;;;;;;;;7.80;59.61;99854.25;4440813;32;20023;-83
2021/12/19 09:34:54;;;;;;;;;;;;;;;7.70;59.61;99853.59;4427603;32;20015;-83
2021/12/19 09:37:19;;;;;;;;;;;;;;;7.78;59.61;99856.03;4427196;32;20003;-83
2021/12/19 09:39:44;;;;;;;;;;;;;;;7.70;59.61;99851.00;4440373;32;19985;-85
2021/12/19 09:42:10;;;;;;;;;;;;;;;7.65;59.60;99835.53;4441544;32;20007;-84
2021/12/19 09:44:38;;;;;;;;;;;;;;;7.89;59.62;99843.75;4428768;32;19977;-85
2021/12/19 09:47:05;;;;;;;;;;;;;;;7.85;59.62;99835.16;4455685;32;19988;-86
2021/12/19 09:49:32;;;;;;;;;;;;;;;8.09;59.63;99828.63;4441575;32;19989;-85
2021/12/19 09:51:58;;;;;;;;;;;;;;;8.17;59.63;99816.38;4441106;32;20366;-85
2021/12/19 09:54:23;;;;;;;;;;;;;;;8.34;59.64;99817.78;4427103;32;20454;-85
2021/12/19 09:56:49;;;;;;;;;;;;;;;8.35;59.63;99807.38;4427601;32;20008;-85
2021/12/19 09:59:15;;;;;;;;;;;;;;;8.29;59.63;99805.75;4428689;32;20322;-84
2021/12/19 10:01:41;;;;;;;;;;;;;;;8.23;59.64;99779.91;4440719;32;20260;-85
2021/12/19 10:04:25;;;;;;;;;;;;;;;8.48;59.65;99780.25;4440506;32;19995;-85
2021/12/19 10:07:01;;;;;;;;;;;;;;;8.60;59.65;99774.78;4440731;32;20684;-85
2021/12/19 10:09:26;;;;;;;;;;;;;;;8.38;59.65;99772.72;4440808;32;19989;-84
2021/12/19 10:12:10;;;;;;;;;;;;;;;8.08;59.63;99769.91;4428157;32;20015;-85
2021/12/19 10:14:35;;;;;;;;;;;;;;;7.99;59.63;99759.72;4443015;32;20009;-85
2021/12/19 10:17:04;;;;;;;;;;;;;;;8.05;59.62;99775.16;4428798;32;19996;-85
2021/12/19 10:19:42;;;;;;;;;;;;;;;8.00;59.63;99762.25;4441282;32;21067;-85
2021/12/19 10:22:22;;;;;;;;;;;;;;;7.94;59.62;99754.63;4441321;32;20007;-84
2021/12/19 10:24:47;;;;;;;;;;;;;;;7.73;59.61;99743.84;4441171;32;19978;-84
2021/12/19 10:27:29;;;;;;;;;;;;;;;7.83;59.60;99759.19;4454128;32;20007;-85
2021/12/19 10:29:55;;;;;;;;;;;;;;;7.76;59.62;99731.69;4440406;32;20369;-84
2021/12/19 10:32:20;;;;;;;;;;;;;;;7.85;59.62;99736.69;4427538;32;20005;-84
2021/12/19 10:34:45;;;;;;;;;;;;;;;8.04;59.62;99736.28;4427983;32;19997;-85
2021/12/19 10:37:10;;;;;;;;;;;;;;;8.11;59.62;99717.97;4428108;32;20322;-85
2021/12/19 10:39:36;;;;;;;;;;;;;;;8.34;59.64;99724.41;4454582;32;24170;-86
2021/12/19 10:42:02;;;;;;;;;;;;;;;7.96;59.62;99723.50;4441506;32;19981;-85
2021/12/19 10:47:24;;;;;;;;;;;;;;;8.06;59.62;99708.59;4455006;32;19983;-85
2021/12/19 10:49:50;;;;;;;;;;;;;;;8.15;59.64;99721.34;4428126;32;20002;-85
2021/12/19 10:52:15;;;;;;;;;;;;;;;7.87;59.62;99728.88;4441075;32;20429;-84
2021/12/19 10:54:57;;;;;;;;;;;;;;;8.09;59.63;99731.88;4439629;32;19995;-83
2021/12/19 10:57:29;;;;;;;;;;;;;;;7.97;59.62;99732.97;4427808;32;19969;-85
2021/12/19 10:59:54;;;;;;;;;;;;;;;7.99;59.63;99732.06;4427769;32;20052;-84
2021/12/19 11:02:33;;;;;;;;;;;;;;;8.19;59.63;99735.94;4439822;32;19985;-83
2021/12/19 11:04:58;;;;;;;;;;;;;;;8.35;59.64;99728.72;4427104;32;19985;-83
2021/12/19 11:07:23;;;;;;;;;;;;;;;8.30;59.63;99736.56;4440929;32;19965;-86
2021/12/19 11:09:48;;;;;;;;;;;;;;;8.28;59.63;99723.66;4454315;32;19981;-84
2021/12/19 11:12:14;;;;;;;;;;;;;;;8.19;59.63;99728.16;4427728;32;20045;-85
2021/12/19 11:14:40;;;;;;;;;;;;;;;8.07;59.63;99731.91;4427763;32;20030;-86
2021/12/19 11:17:06;;;;;;;;;;;;;;;8.25;59.64;99718.50;4441064;32;20034;-84
2021/12/19 11:19:32;;;;;;;;;;;;;;;8.23;59.63;99746.22;4440276;32;20011;-85
2021/12/19 11:21:57;;;;;;;;;;;;;;;7.91;59.61;99743.47;4441267;32;20012;-85
2021/12/19 11:24:23;;;;;;;;;;;;;;;7.91;59.61;99746.06;4440289;32;20490;-86
2021/12/19 11:26:49;;;;;;;;;;;;;;;7.77;59.62;99763.63;4440699;32;19973;-85
2021/12/19 11:29:14;;;;;;;;;;;;;;;7.93;59.62;99750.34;4440701;32;20376;-84
2021/12/19 11:31:41;;;;;;;;;;;;;;;7.98;59.62;99764.03;4454504;32;20033;-85
2021/12/19 11:34:25;;;;;;;;;;;;;;;8.01;59.63;99756.19;4427957;32;19981;-85
2021/12/19 11:36:57;;;;;;;;;;;;;;;8.12;59.63;99755.97;4455043;32;19981;-85
2021/12/19 11:39:32;;;;;;;;;;;;;;;8.24;59.63;99741.87;4454409;32;19976;-86
2021/12/19 11:42:16;;;;;;;;;;;;;;;8.44;59.64;99744.06;4440142;32;20356;-85
2021/12/19 11:45:13;;;;;;;;;;;;;;;8.50;59.65;99736.13;4440431;32;19995;-84
2021/12/19 11:47:42;;;;;;;;;;;;;;;8.52;59.66;99739.56;4454409;32;20315;-85
2021/12/19 11:50:27;;;;;;;;;;;;;;;8.45;59.65;99733.63;4415216;32;788927;-85
2021/12/19 11:52:56;;;;;;;;;;;;;;;8.32;59.64;99738.25;4428459;32;20662;-85
2021/12/19 11:55:23;;;;;;;;;;;;;;;8.30;59.64;99734.84;4426594;32;20014;-85
2021/12/19 11:58:09;;;;;;;;;;;;;;;8.34;59.64;99724.41;4426870;32;20441;-85
2021/12/19 12:00:48;;;;;;;;;;;;;;;8.47;59.65;99733.59;4431562;32;20392;-86
2021/12/19 12:03:13;;;;;;;;;;;;;;;8.41;59.64;99729.41;4439946;32;19988;-84
2021/12/19 12:05:39;;;;;;;;;;;;;;;8.20;59.63;99735.06;4438978;32;20317;-86
2021/12/19 12:08:04;;;;;;;;;;;;;;;8.12;59.63;99732.66;4439332;32;20003;-85
2021/12/19 12:10:52;;;;;;;;;;;;;;;8.39;59.65;99735.53;4439371;32;19989;-86
2021/12/19 12:13:24;;;;;;;;;;;;;;;7.95;59.62;99735.59;4439824;32;19988;-86
2021/12/19 12:15:57;;;;;;;;;;;;;;;8.07;59.63;99729.31;4439598;32;20011;-86
2021/12/19 12:18:29;;;;;;;;;;;;;;;8.12;59.63;99734.37;4427805;32;20048;-85
2021/12/19 12:20:54;;;;;;;;;;;;;;;8.04;59.62;99731.94;4426900;32;19997;-85
2021/12/19 12:23:20;;;;;;;;;;;;;;;7.70;59.61;99732.69;4439847;32;19993;-85
2021/12/19 12:25:45;;;;;;;;;;;;;;;7.79;59.61;99723.84;4426360;32;20025;-87
2021/12/19 12:28:15;;;;;;;;;;;;;;;7.77;59.61;99720.44;4439453;32;20043;-86
2021/12/19 12:30:52;;;;;;;;;;;;;;;7.83;59.61;99727.25;4427166;32;20364;-87
2021/12/19 12:33:18;;;;;;;;;;;;;;;7.75;59.61;99718.75;4440953;32;20012;-86
2021/12/19 12:35:44;;;;;;;;;;;;;;;7.90;59.61;99708.09;4429315;32;19992;-85
2021/12/19 12:38:09;;;;;;;;;;;;;;;8.09;59.63;99704.19;4441655;32;19997;-84
2021/12/19 12:40:53;;;;;;;;;;;;;;;7.90;59.61;99692.53;4429278;32;20032;-86
2021/12/19 12:43:27;;;;;;;;;;;;;;;7.76;59.61;99694.56;4429846;32;19981;-82
2021/12/19 12:45:52;;;;;;;;;;;;;;;7.77;59.62;99698.84;4428798;32;20052;-84
2021/12/19 12:48:32;;;;;;;;;;;;;;;7.66;59.60;99686.16;4441893;32;20273;-85
2021/12/19 12:50:57;;;;;;;;;;;;;;;7.66;59.60;99683.56;4429212;32;20012;-85
2021/12/19 12:53:29;;;;;;;;;;;;;;;7.85;59.62;99686.59;4428942;32;20247;-85
2021/12/19 12:56:09;;;;;;;;;;;;;;;7.85;59.61;99690.06;4442278;32;19995;-85
2021/12/19 12:58:39;;;;;;;;;;;;;;;7.79;59.61;99681.53;4429555;32;19977;-85
2021/12/19 13:01:13;;;;;;;;;;;;;;;7.79;59.61;99684.97;4442114;32;20325;-86
2021/12/19 13:03:38;;;;;;;;;;;;;;;7.65;59.60;99681.84;4456114;32;20036;-85
2021/12/19 13:06:03;;;;;;;;;;;;;;;7.61;59.60;99685.41;4441849;32;19976;-85
2021/12/19 13:08:29;;;;;;;;;;;;;;;7.61;59.60;99675.03;4428897;32;20054;-86
2021/12/19 13:10:54;;;;;;;;;;;;;;;7.57;59.60;99665.59;4428830;32;21110;-86
2021/12/19 13:13:24;;;;;;;;;;;;;;;7.44;59.59;99665.00;4428724;32;20023;-85
2021/12/19 13:15:49;;;;;;;;;;;;;;;7.37;59.59;99666.03;4429274;32;20382;-86
2021/12/19 13:18:15;;;;;;;;;;;;;;;7.58;59.60;99664.75;4441651;32;20004;-85
2021/12/19 13:20:40;;;;;;;;;;;;;;;7.66;59.60;99661.09;4442044;32;20001;-84
2021/12/19 13:23:05;;;;;;;;;;;;;;;7.43;59.60;99658.13;4429102;32;20325;-85
2021/12/19 13:25:42;;;;;;;;;;;;;;;7.58;59.60;99659.56;4428734;32;19974;-85
2021/12/19 13:28:10;;;;;;;;;;;;;;;7.61;59.61;99660.34;4429005;32;19976;-84
2021/12/19 13:30:35;;;;;;;;;;;;;;;7.65;59.60;99648.16;4429619;32;20008;-86
2021/12/19 13:33:05;;;;;;;;;;;;;;;7.56;59.60;99653.53;4441434;32;20013;-84
2021/12/19 13:35:30;;;;;;;;;;;;;;;7.47;59.60;99636.47;4441381;32;20011;-86
2021/12/19 13:38:06;;;;;;;;;;;;;;;7.37;59.59;99640.13;4455834;32;19989;-85
2021/12/19 13:40:38;;;;;;;;;;;;;;;7.35;59.59;99636.72;4428989;32;20282;-85
2021/12/19 13:43:03;;;;;;;;;;;;;;;7.54;59.59;99625.06;4441572;32;20048;-85
2021/12/19 13:45:30;;;;;;;;;;;;;;;7.55;59.60;99618.16;4455963;32;20013;-85
2021/12/19 13:47:56;;;;;;;;;;;;;;;7.43;59.59;99628.78;4429306;32;20266;-84
2021/12/19 13:50:21;;;;;;;;;;;;;;;7.47;59.60;99610.56;4429082;32;20038;-85
2021/12/19 13:52:46;;;;;;;;;;;;;;;7.58;59.60;99612.94;4441703;32;20347;-85
2021/12/19 13:55:12;;;;;;;;;;;;;;;7.45;59.59;99609.75;4441946;32;19973;-86
2021/12/19 13:57:37;;;;;;;;;;;;;;;7.41;59.59;99602.09;4441722;32;19977;-85
2021/12/19 14:00:06;;;;;;;;;;;;;;;7.37;59.59;99619.44;4441776;32;20012;-84
2021/12/19 14:02:38;;;;;;;;;;;;;;;7.40;59.60;99601.22;4441863;32;19993;-86